BISN17 BIKF-ENGM
Flight info
| Callsign | BISN17 |
|---|---|
| Flight time | N/A |
| Altitude | 42000 |
| Route | LUTE2A LUTER 64N010W ISVIG BELGU BELG3L |
| Aircraft | C17/H-V/N |
Departure
| Time | 2026-05-05 18:27 |
|---|---|
| Airport | Keflavik International Airport (BIKF) |
Arrival
| Time | N/A |
|---|---|
| Airport | Oslo-Gardermoen International Airport (ENGM) |
| Time | Latitude | Longitude | Altitude | Speed | Heading |
|---|---|---|---|---|---|
| 2026-05-05 18:08 | 63.99279 | -22.62558 | 160 ft | 0 kts | 50° |
| 2026-05-05 18:16 | 63.99279 | -22.62559 | 160 ft | 0 kts | 50° |
| 2026-05-05 18:17 | 63.99270 | -22.62586 | 160 ft | 2 kts | 50° |
| 2026-05-05 18:17 | 63.99259 | -22.62614 | 159 ft | 2 kts | 50° |
| 2026-05-05 18:17 | 63.99259 | -22.62643 | 159 ft | 2 kts | 166° |
| 2026-05-05 18:18 | 63.99262 | -22.62644 | 159 ft | 0 kts | 187° |
| 2026-05-05 18:18 | 63.99251 | -22.62647 | 159 ft | 4 kts | 187° |
| 2026-05-05 18:18 | 63.99226 | -22.62655 | 158 ft | 4 kts | 186° |
| 2026-05-05 18:19 | 63.99201 | -22.62651 | 158 ft | 3 kts | 166° |
| 2026-05-05 18:19 | 63.99194 | -22.62644 | 158 ft | 0 kts | 148° |
| 2026-05-05 18:19 | 63.99183 | -22.62613 | 158 ft | 7 kts | 121° |
| 2026-05-05 18:19 | 63.99175 | -22.62483 | 159 ft | 9 kts | 90° |
| 2026-05-05 18:20 | 63.99175 | -22.62331 | 161 ft | 10 kts | 89° |
| 2026-05-05 18:20 | 63.99174 | -22.62160 | 163 ft | 11 kts | 91° |
| 2026-05-05 18:20 | 63.99173 | -22.61969 | 165 ft | 13 kts | 90° |
| 2026-05-05 18:20 | 63.99174 | -22.61757 | 167 ft | 14 kts | 89° |
| 2026-05-05 18:21 | 63.99172 | -22.61526 | 169 ft | 15 kts | 91° |
| 2026-05-05 18:21 | 63.99172 | -22.61275 | 171 ft | 16 kts | 90° |
| 2026-05-05 18:21 | 63.99167 | -22.61023 | 172 ft | 15 kts | 111° |
| 2026-05-05 18:21 | 63.99089 | -22.60950 | 172 ft | 11 kts | 189° |
| 2026-05-05 18:22 | 63.99012 | -22.60952 | 171 ft | 13 kts | 178° |
| 2026-05-05 18:22 | 63.98907 | -22.60949 | 170 ft | 17 kts | 180° |
| 2026-05-05 18:22 | 63.98769 | -22.60946 | 168 ft | 22 kts | 179° |
| 2026-05-05 18:22 | 63.98598 | -22.60941 | 166 ft | 27 kts | 179° |
| 2026-05-05 18:23 | 63.98397 | -22.60943 | 164 ft | 31 kts | 180° |
| 2026-05-05 18:23 | 63.98174 | -22.60943 | 164 ft | 34 kts | 180° |
| 2026-05-05 18:23 | 63.97926 | -22.60948 | 162 ft | 37 kts | 179° |
| 2026-05-05 18:23 | 63.97653 | -22.60945 | 159 ft | 41 kts | 179° |
| 2026-05-05 18:24 | 63.97355 | -22.60943 | 156 ft | 44 kts | 180° |
| 2026-05-05 18:24 | 63.97044 | -22.60951 | 153 ft | 45 kts | 180° |
| 2026-05-05 18:24 | 63.96738 | -22.60929 | 150 ft | 42 kts | 176° |
| 2026-05-05 18:24 | 63.96531 | -22.60927 | 148 ft | 22 kts | 179° |
| 2026-05-05 18:25 | 63.96460 | -22.60747 | 148 ft | 15 kts | 93° |
| 2026-05-05 18:25 | 63.96468 | -22.60601 | 147 ft | 12 kts | 59° |
| 2026-05-05 18:25 | 63.96521 | -22.60555 | 148 ft | 1 kts | 0° |
| 2026-05-05 18:25 | 63.96751 | -22.60549 | 152 ft | 74 kts | 360° |
| 2026-05-05 18:26 | 63.97535 | -22.60546 | 161 ft | 149 kts | 0° |
| 2026-05-05 18:26 | 63.98771 | -22.60563 | 324 ft | 207 kts | 1° |
| 2026-05-05 18:26 | 64.00426 | -22.60672 | 541 ft | 269 kts | 359° |
| 2026-05-05 18:26 | 64.02491 | -22.60376 | 682 ft | 325 kts | 18° |
| 2026-05-05 18:27 | 64.04510 | -22.57459 | 1275 ft | 368 kts | 45° |
| 2026-05-05 18:27 | 64.05911 | -22.52240 | 1823 ft | 409 kts | 69° |
| 2026-05-05 18:27 | 64.06431 | -22.45574 | 2373 ft | 445 kts | 85° |
| 2026-05-05 18:27 | 64.06535 | -22.38475 | 2915 ft | 417 kts | 88° |
| 2026-05-05 18:28 | 64.06752 | -22.27377 | 4032 ft | 317 kts | 83° |
| 2026-05-05 18:28 | 64.06931 | -22.22493 | 4675 ft | 317 kts | 84° |
| 2026-05-05 18:28 | 64.07105 | -22.17351 | 5373 ft | 311 kts | 85° |
| 2026-05-05 18:29 | 64.07241 | -22.12852 | 6153 ft | 260 kts | 84° |
| 2026-05-05 18:29 | 64.07371 | -22.08789 | 6949 ft | 258 kts | 84° |
| 2026-05-05 18:29 | 64.07507 | -22.04635 | 7749 ft | 266 kts | 84° |
| 2026-05-05 18:29 | 64.07641 | -22.00376 | 8551 ft | 272 kts | 84° |
| 2026-05-05 18:30 | 64.07773 | -21.96019 | 9402 ft | 277 kts | 84° |
| 2026-05-05 18:30 | 64.07909 | -21.91585 | 10237 ft | 282 kts | 84° |
| 2026-05-05 18:30 | 64.08046 | -21.87053 | 11028 ft | 291 kts | 84° |
| 2026-05-05 18:30 | 64.08186 | -21.82336 | 11834 ft | 304 kts | 84° |
| 2026-05-05 18:31 | 64.08336 | -21.77394 | 12580 ft | 320 kts | 84° |
| 2026-05-05 18:31 | 64.08488 | -21.72179 | 13302 ft | 336 kts | 85° |
| 2026-05-05 18:31 | 64.08642 | -21.66733 | 14029 ft | 351 kts | 84° |
| 2026-05-05 18:31 | 64.08804 | -21.61057 | 14682 ft | 364 kts | 84° |
| 2026-05-05 18:32 | 64.08969 | -21.55200 | 15338 ft | 375 kts | 85° |
| 2026-05-05 18:32 | 64.09137 | -21.49176 | 15990 ft | 384 kts | 85° |
| 2026-05-05 18:32 | 64.09303 | -21.43023 | 16683 ft | 393 kts | 85° |
| 2026-05-05 18:32 | 64.09473 | -21.36713 | 17377 ft | 402 kts | 85° |
| 2026-05-05 18:33 | 64.09643 | -21.30256 | 18100 ft | 411 kts | 85° |
| 2026-05-05 18:33 | 64.09812 | -21.23681 | 18777 ft | 418 kts | 85° |
| 2026-05-05 18:33 | 64.09983 | -21.17019 | 19404 ft | 420 kts | 85° |
| 2026-05-05 18:33 | 64.10149 | -21.10347 | 20044 ft | 421 kts | 85° |
| 2026-05-05 18:34 | 64.10314 | -21.03630 | 20697 ft | 425 kts | 85° |
| 2026-05-05 18:34 | 64.10478 | -20.96834 | 21378 ft | 430 kts | 85° |
| 2026-05-05 18:34 | 64.10637 | -20.90067 | 22062 ft | 434 kts | 85° |
| 2026-05-05 18:34 | 64.10797 | -20.83159 | 22768 ft | 436 kts | 85° |
| 2026-05-05 18:35 | 64.10957 | -20.76121 | 23503 ft | 438 kts | 85° |
| 2026-05-05 18:35 | 64.11110 | -20.69153 | 24134 ft | 439 kts | 85° |
| 2026-05-05 18:35 | 64.11259 | -20.62251 | 24653 ft | 442 kts | 85° |
| 2026-05-05 18:35 | 64.11410 | -20.55208 | 25140 ft | 445 kts | 85° |
| 2026-05-05 18:36 | 64.11555 | -20.48121 | 25636 ft | 447 kts | 85° |
| 2026-05-05 18:36 | 64.11724 | -20.40998 | 26140 ft | 449 kts | 85° |
| 2026-05-05 18:36 | 64.11841 | -20.33849 | 26658 ft | 451 kts | 86° |
| 2026-05-05 18:36 | 64.11946 | -20.26667 | 27189 ft | 452 kts | 86° |
| 2026-05-05 18:37 | 64.12062 | -20.19480 | 27730 ft | 452 kts | 86° |
| 2026-05-05 18:37 | 64.12174 | -20.12289 | 28274 ft | 452 kts | 86° |
| 2026-05-05 18:37 | 64.12278 | -20.05098 | 28832 ft | 451 kts | 86° |
| 2026-05-05 18:37 | 64.12380 | -19.97925 | 29346 ft | 452 kts | 86° |
| 2026-05-05 18:38 | 64.12482 | -19.90622 | 29788 ft | 454 kts | 86° |
| 2026-05-05 18:38 | 64.12575 | -19.83496 | 30225 ft | 455 kts | 86° |
| 2026-05-05 18:38 | 64.12666 | -19.76255 | 30599 ft | 455 kts | 86° |
| 2026-05-05 18:38 | 64.12756 | -19.69003 | 30953 ft | 456 kts | 86° |
| 2026-05-05 18:39 | 64.12842 | -19.61752 | 31320 ft | 456 kts | 86° |
| 2026-05-05 18:39 | 64.12922 | -19.54504 | 31694 ft | 455 kts | 86° |
| 2026-05-05 18:39 | 64.13001 | -19.47267 | 32074 ft | 455 kts | 86° |
| 2026-05-05 18:39 | 64.13075 | -19.40027 | 32419 ft | 455 kts | 86° |
| 2026-05-05 18:40 | 64.13215 | -19.25314 | 32549 ft | 469 kts | 86° |
| 2026-05-05 18:40 | 64.13343 | -19.10194 | 32869 ft | 477 kts | 86° |
| 2026-05-05 18:41 | 64.13400 | -19.02620 | 33214 ft | 476 kts | 86° |
| 2026-05-05 18:41 | 64.13456 | -18.95048 | 33575 ft | 475 kts | 86° |
| 2026-05-05 18:41 | 64.13506 | -18.87516 | 33986 ft | 472 kts | 86° |
| 2026-05-05 18:41 | 64.13551 | -18.80024 | 34361 ft | 469 kts | 86° |
| 2026-05-05 18:42 | 64.13594 | -18.72582 | 34696 ft | 466 kts | 86° |
| 2026-05-05 18:42 | 64.13632 | -18.65189 | 35032 ft | 462 kts | 87° |
| 2026-05-05 18:42 | 64.13666 | -18.57859 | 35378 ft | 458 kts | 87° |
| 2026-05-05 18:42 | 64.13695 | -18.50598 | 35710 ft | 455 kts | 87° |
| 2026-05-05 18:43 | 64.13746 | -18.36062 | 35805 ft | 464 kts | 87° |
| 2026-05-05 18:43 | 64.13765 | -18.28652 | 35922 ft | 464 kts | 87° |
| 2026-05-05 18:43 | 64.13780 | -18.21239 | 36037 ft | 467 kts | 87° |
| 2026-05-05 18:44 | 64.13801 | -18.06226 | 36090 ft | 476 kts | 87° |
| 2026-05-05 18:44 | 64.13806 | -17.90938 | 36153 ft | 484 kts | 88° |
| 2026-05-05 18:45 | 64.13794 | -17.75412 | 36195 ft | 492 kts | 88° |
| 2026-05-05 18:45 | 64.13764 | -17.59758 | 36760 ft | 485 kts | 88° |
| 2026-05-05 18:46 | 64.13746 | -17.52099 | 37258 ft | 477 kts | 88° |
| 2026-05-05 18:46 | 64.13722 | -17.44583 | 37761 ft | 468 kts | 88° |
| 2026-05-05 18:46 | 64.13695 | -17.37200 | 38278 ft | 459 kts | 88° |
| 2026-05-05 18:46 | 64.13666 | -17.29862 | 38322 ft | 462 kts | 88° |
| 2026-05-05 18:47 | 64.13593 | -17.15074 | 38381 ft | 467 kts | 88° |
| 2026-05-05 18:47 | 64.13504 | -17.00138 | 38449 ft | 471 kts | 88° |
| 2026-05-05 18:48 | 64.13399 | -16.85055 | 38505 ft | 476 kts | 89° |
| 2026-05-05 18:48 | 64.13278 | -16.69843 | 38556 ft | 480 kts | 89° |
| 2026-05-05 18:49 | 64.13164 | -16.57095 | 38599 ft | 483 kts | 89° |
| 2026-05-05 18:49 | 64.13089 | -16.49482 | 39039 ft | 473 kts | 89° |
| 2026-05-05 18:49 | 64.13014 | -16.42030 | 39469 ft | 463 kts | 89° |
| 2026-05-05 18:50 | 64.12937 | -16.34754 | 39905 ft | 452 kts | 89° |
| 2026-05-05 18:50 | 64.12858 | -16.27630 | 40178 ft | 446 kts | 89° |
| 2026-05-05 18:50 | 64.12689 | -16.13390 | 40231 ft | 448 kts | 89° |
| 2026-05-05 18:51 | 64.12505 | -15.99139 | 40293 ft | 448 kts | 89° |
| 2026-05-05 18:51 | 64.12308 | -15.84860 | 40374 ft | 449 kts | 90° |
| 2026-05-05 18:52 | 64.12096 | -15.70576 | 40456 ft | 449 kts | 90° |
| 2026-05-05 18:52 | 64.11870 | -15.56295 | 40509 ft | 448 kts | 90° |
| 2026-05-05 18:53 | 64.11633 | -15.42173 | 40556 ft | 446 kts | 90° |
| 2026-05-05 18:53 | 64.11382 | -15.28034 | 40606 ft | 443 kts | 90° |
| 2026-05-05 18:54 | 64.11118 | -15.13950 | 40655 ft | 441 kts | 90° |
| 2026-05-05 18:54 | 64.10842 | -14.99940 | 40702 ft | 440 kts | 90° |
| 2026-05-05 18:55 | 64.10553 | -14.85955 | 40753 ft | 440 kts | 91° |
| 2026-05-05 18:55 | 64.10251 | -14.71928 | 40804 ft | 442 kts | 91° |
| 2026-05-05 18:56 | 64.09933 | -14.57915 | 40872 ft | 444 kts | 91° |
| 2026-05-05 18:56 | 64.09600 | -14.43765 | 40901 ft | 447 kts | 91° |
| 2026-05-05 18:57 | 64.09250 | -14.29494 | 40909 ft | 450 kts | 91° |
| 2026-05-05 18:57 | 64.08883 | -14.15149 | 40911 ft | 453 kts | 91° |
| 2026-05-05 18:58 | 64.08502 | -14.00722 | 40910 ft | 456 kts | 91° |
| 2026-05-05 18:58 | 64.08100 | -13.86175 | 40907 ft | 460 kts | 92° |
| 2026-05-05 18:59 | 64.07685 | -13.71604 | 40905 ft | 464 kts | 92° |
| 2026-05-05 18:59 | 64.07249 | -13.56828 | 40904 ft | 468 kts | 92° |
| 2026-05-05 19:00 | 64.06793 | -13.41940 | 40897 ft | 472 kts | 92° |
| 2026-05-05 19:00 | 64.06318 | -13.26921 | 40895 ft | 476 kts | 92° |
| 2026-05-05 19:01 | 64.06075 | -13.19428 | 41200 ft | 468 kts | 92° |
| 2026-05-05 19:01 | 64.05834 | -13.12100 | 41677 ft | 457 kts | 92° |
| 2026-05-05 19:01 | 64.05595 | -13.04913 | 41937 ft | 452 kts | 92° |
| 2026-05-05 19:01 | 64.05352 | -12.97757 | 41952 ft | 452 kts | 92° |
| 2026-05-05 19:02 | 64.04856 | -12.83425 | 42002 ft | 453 kts | 93° |
| 2026-05-05 19:02 | 64.04343 | -12.69080 | 42050 ft | 453 kts | 93° |
| 2026-05-05 19:03 | 64.03821 | -12.54825 | 42107 ft | 453 kts | 93° |
| 2026-05-05 19:03 | 64.03281 | -12.40468 | 42147 ft | 453 kts | 93° |
| 2026-05-05 19:04 | 64.02726 | -12.26131 | 42161 ft | 454 kts | 93° |
| 2026-05-05 19:04 | 64.02156 | -12.11754 | 42167 ft | 455 kts | 93° |
| 2026-05-05 19:05 | 64.01571 | -11.97352 | 42175 ft | 457 kts | 94° |
| 2026-05-05 19:05 | 64.00967 | -11.82857 | 42156 ft | 461 kts | 94° |
| 2026-05-05 19:06 | 64.00344 | -11.68242 | 42163 ft | 465 kts | 94° |
| 2026-05-05 19:06 | 63.99703 | -11.53599 | 42151 ft | 469 kts | 94° |
| 2026-05-05 19:07 | 63.99039 | -11.38750 | 42145 ft | 473 kts | 94° |
| 2026-05-05 19:07 | 63.98353 | -11.23771 | 42145 ft | 477 kts | 95° |
| 2026-05-05 19:08 | 63.97646 | -11.08669 | 42140 ft | 481 kts | 95° |
| 2026-05-05 19:08 | 63.96915 | -10.93438 | 42139 ft | 485 kts | 95° |
| 2026-05-05 19:09 | 63.96164 | -10.78090 | 42133 ft | 489 kts | 95° |
| 2026-05-05 19:09 | 63.95393 | -10.62700 | 42131 ft | 494 kts | 95° |
| 2026-05-05 19:10 | 63.94596 | -10.47119 | 42126 ft | 498 kts | 95° |
| 2026-05-05 19:10 | 63.93774 | -10.31414 | 42127 ft | 502 kts | 96° |
| 2026-05-05 19:11 | 63.92930 | -10.15592 | 42120 ft | 506 kts | 96° |
| 2026-05-05 19:11 | 63.92060 | -9.99644 | 42118 ft | 510 kts | 96° |
| 2026-05-05 19:12 | 63.91173 | -9.83709 | 42110 ft | 514 kts | 96° |
| 2026-05-05 19:12 | 63.90254 | -9.67538 | 42111 ft | 518 kts | 96° |
| 2026-05-05 19:13 | 63.89311 | -9.51256 | 42107 ft | 522 kts | 96° |
| 2026-05-05 19:13 | 63.88341 | -9.34853 | 42101 ft | 526 kts | 97° |
| 2026-05-05 19:14 | 63.87346 | -9.18356 | 42099 ft | 529 kts | 97° |
| 2026-05-05 19:14 | 63.86325 | -9.01752 | 42092 ft | 533 kts | 97° |
| 2026-05-05 19:15 | 63.85277 | -8.85040 | 42089 ft | 537 kts | 97° |
| 2026-05-05 19:15 | 63.84209 | -8.68314 | 42085 ft | 540 kts | 97° |
| 2026-05-05 19:16 | 63.83112 | -8.51470 | 42080 ft | 541 kts | 97° |
| 2026-05-05 19:16 | 63.81994 | -8.34616 | 42079 ft | 539 kts | 98° |
| 2026-05-05 19:17 | 63.80862 | -8.17840 | 42072 ft | 538 kts | 98° |
| 2026-05-05 19:17 | 63.79713 | -8.01129 | 42070 ft | 537 kts | 98° |
| 2026-05-05 19:18 | 63.78548 | -7.84469 | 42067 ft | 536 kts | 98° |
| 2026-05-05 19:18 | 63.77366 | -7.67849 | 42060 ft | 534 kts | 98° |
| 2026-05-05 19:19 | 63.76174 | -7.51396 | 42056 ft | 533 kts | 98° |
| 2026-05-05 19:19 | 63.74960 | -7.34887 | 42049 ft | 532 kts | 98° |
| 2026-05-05 19:20 | 63.73728 | -7.18413 | 42052 ft | 531 kts | 99° |
| 2026-05-05 19:20 | 63.72481 | -7.01995 | 42045 ft | 530 kts | 99° |
| 2026-05-05 19:21 | 63.71216 | -6.85609 | 42039 ft | 529 kts | 99° |
| 2026-05-05 19:21 | 63.69936 | -6.69271 | 42040 ft | 528 kts | 99° |
| 2026-05-05 19:22 | 63.68640 | -6.52997 | 42033 ft | 527 kts | 99° |